Time;durP1;ratioP1;P1;durP2;ratioP2;P2;SDS_P1;SDS_P2;PMS_P1;PMS_P2;Temp;Humidity;BMP_temperature;BMP_pressure;BME280_temperature;BME280_humidity;BME280_pressure;Samples;Min_cycle;Max_cycle;Signal;HPM_P1;HPM_P2
2022/10/09 00:01:17;;;;;;;40.33;28.90;;;;;;;12.62;76.88;97700.44;1694877;83;25720;-86
2022/10/09 00:03:46;;;;;;;37.65;28.10;;;;;;;12.65;76.99;97708.66;1725426;81;26590;-86
2022/10/09 00:06:18;;;;;;;36.13;26.62;;;;;;;12.63;77.13;97715.13;1689088;84;25708;-86
2022/10/09 00:08:44;;;;;;;39.60;27.03;;;;;;;12.62;77.15;97714.81;1716205;81;27486;-86
2022/10/09 00:11:18;;;;;;;35.33;26.30;;;;;;;12.61;77.30;97710.44;1690595;83;25750;-86
2022/10/09 00:13:45;;;;;;;39.65;26.82;;;;;;;12.61;77.29;97717.21;1718955;83;25794;-86
2022/10/09 00:16:14;;;;;;;39.63;27.52;;;;;;;12.62;77.30;97709.40;1720741;81;25951;-85
2022/10/09 00:18:42;;;;;;;36.42;26.35;;;;;;;12.63;77.30;97712.94;1727653;81;25755;-87
2022/10/09 00:21:24;;;;;;;39.48;26.33;;;;;;;12.68;77.21;97716.36;1719316;82;27466;-87
2022/10/09 00:23:54;;;;;;;38.35;26.52;;;;;;;12.73;77.15;97719.23;1701468;82;26147;-86
2022/10/09 00:26:21;;;;;;;36.63;25.92;;;;;;;12.74;77.22;97721.73;1689653;84;25739;-85
2022/10/09 00:28:49;;;;;;;34.88;23.73;;;;;;;12.74;77.21;97717.66;1719567;81;26579;-86
2022/10/09 00:31:16;;;;;;;38.33;25.32;;;;;;;12.76;77.06;97714.74;1686680;84;25300;-86
2022/10/09 00:33:43;;;;;;;36.98;23.22;;;;;;;12.79;77.10;97717.02;1718884;81;27451;-86
2022/10/09 00:36:14;;;;;;;31.17;22.73;;;;;;;12.79;76.99;97717.02;1690579;83;25702;-86
2022/10/09 00:38:41;;;;;;;39.00;23.38;;;;;;;12.79;76.93;97714.31;1719470;83;26358;-86
2022/10/09 00:41:11;;;;;;;29.12;22.10;;;;;;;12.79;76.98;97718.38;1689540;84;25678;-86
2022/10/09 00:43:48;;;;;;;32.85;21.77;;;;;;;12.81;76.98;97721.67;1720888;81;25659;-87
2022/10/09 00:46:44;;;;;;;29.70;19.60;;;;;;;12.82;77.04;97730.11;1690728;83;28238;-86
2022/10/09 00:49:16;;;;;;;29.90;19.02;;;;;;;12.80;76.75;97726.81;1688939;83;25851;-86
2022/10/09 00:51:45;;;;;;;28.70;16.50;;;;;;;12.80;76.69;97732.23;1693201;82;25688;-86
2022/10/09 00:54:15;;;;;;;25.88;15.68;;;;;;;12.78;76.40;97728.91;1690303;83;25765;-85
2022/10/09 00:56:42;;;;;;;24.80;15.05;;;;;;;12.78;76.06;97735.67;1721359;82;26389;-86
2022/10/09 00:59:10;;;;;;;21.87;15.98;;;;;;;12.79;75.95;97734.11;1719765;82;27553;-85
2022/10/09 01:01:40;;;;;;;24.18;16.55;;;;;;;12.80;76.15;97732.23;1718286;82;25754;-85
2022/10/09 01:04:06;;;;;;;25.32;17.25;;;;;;;12.78;76.22;97724.84;1720189;82;25705;-85
2022/10/09 01:07:18;;;;;;;23.52;16.87;;;;;;;12.78;76.17;97733.80;1721323;82;26496;-85
2022/10/09 01:09:49;;;;;;;20.20;14.13;;;;;;;12.80;76.28;97730.88;1724057;81;25801;-86
2022/10/09 01:12:41;;;;;;;21.10;13.55;;;;;;;12.77;76.17;97732.14;1691091;83;27355;-86
2022/10/09 01:15:25;;;;;;;19.10;12.18;;;;;;;12.76;75.87;97733.70;1691645;84;25903;-86
2022/10/09 01:18:17;;;;;;;18.65;12.30;;;;;;;12.76;75.85;97725.05;1714447;82;25748;-85
2022/10/09 01:20:53;;;;;;;14.07;10.58;;;;;;;12.77;75.82;97725.89;1720031;82;26308;-86
2022/10/09 01:24:04;;;;;;;16.95;11.30;;;;;;;12.75;75.65;97725.27;1722050;82;25990;-86
2022/10/09 01:26:59;;;;;;;18.10;10.90;;;;;;;12.76;75.65;97730.47;1691295;83;28131;-85
2022/10/09 01:29:40;;;;;;;19.82;11.08;;;;;;;12.78;75.64;97735.67;1683226;83;25811;-86
2022/10/09 01:32:11;;;;;;;14.87;9.70;;;;;;;12.79;75.60;97732.75;1676397;84;25755;-86
2022/10/09 01:34:40;;;;;;;16.15;10.10;;;;;;;12.79;75.47;97726.50;1726961;81;26592;-86
2022/10/09 01:37:08;;;;;;;14.93;10.65;;;;;;;12.80;75.41;97734.94;1720431;82;25709;-86
2022/10/09 01:39:37;;;;;;;17.82;11.20;;;;;;;12.75;75.43;97732.88;1724066;82;28044;-86
2022/10/09 01:42:05;;;;;;;20.52;11.53;;;;;;;12.72;75.35;97736.01;1722902;82;25781;-85
2022/10/09 01:44:32;;;;;;;19.37;11.65;;;;;;;12.67;75.23;97735.02;1704459;82;25783;-87
2022/10/09 01:47:00;;;;;;;21.15;12.20;;;;;;;12.66;75.11;97741.47;1740457;81;26472;-85
2022/10/09 01:49:38;;;;;;;18.55;12.47;;;;;;;12.63;74.95;97750.33;1693276;84;25302;-86
2022/10/09 01:52:37;;;;;;;21.48;12.23;;;;;;;12.66;74.82;97752.31;1690567;83;27430;-87
2022/10/09 01:55:34;;;;;;;17.92;11.68;;;;;;;12.66;74.78;97763.14;1692858;83;25828;-86
2022/10/09 01:58:24;;;;;;;20.77;11.53;;;;;;;12.66;74.84;97764.49;1678190;84;25768;-86
2022/10/09 02:00:59;;;;;;;16.97;11.12;;;;;;;12.60;74.72;97756.70;1695060;83;25842;-84
2022/10/09 02:03:28;;;;;;;14.75;9.03;;;;;;;12.60;74.60;97756.70;1689629;84;25764;-85
2022/10/09 02:05:56;;;;;;;16.00;8.00;;;;;;;12.61;74.15;97766.48;1685615;83;27364;-86
2022/10/09 02:08:24;;;;;;;12.73;7.15;;;;;;;12.56;73.73;97771.70;1686183;83;25860;-86
2022/10/09 02:10:55;;;;;;;10.43;6.35;;;;;;;12.49;73.30;97773.61;1686300;83;26297;-86
2022/10/09 02:13:22;;;;;;;13.38;6.83;;;;;;;12.44;73.04;97784.24;1703013;82;25815;-83
2022/10/09 02:15:54;;;;;;;10.00;6.10;;;;;;;12.37;72.69;97785.64;1690804;83;25308;-85
2022/10/09 02:18:39;;;;;;;13.08;6.55;;;;;;;12.33;72.30;97791.16;1692157;82;33726;-85
2022/10/09 02:21:13;;;;;;;12.33;6.15;;;;;;;12.28;72.34;97799.10;1681075;84;25263;-85
2022/10/09 02:23:41;;;;;;;9.78;5.42;;;;;;;12.32;72.26;97797.61;1705944;82;25820;-86
2022/10/09 02:26:09;;;;;;;12.70;5.03;;;;;;;12.27;72.02;97801.50;1712229;81;25752;-83
2022/10/09 02:28:37;;;;;;;9.83;5.03;;;;;;;12.24;72.01;97812.73;1715704;82;25777;-84
2022/10/09 02:31:17;;;;;;;11.10;5.22;;;;;;;12.20;71.62;97816.38;1713872;82;28201;-86
2022/10/09 02:33:43;;;;;;;12.43;5.12;;;;;;;12.16;71.74;97815.68;1703797;82;25810;-86
2022/10/09 02:36:11;;;;;;;8.53;5.08;;;;;;;12.14;71.90;97810.48;1721400;82;25689;-85
2022/10/09 02:38:37;;;;;;;9.58;5.22;;;;;;;12.11;71.82;97814.95;1701515;81;25731;-82
2022/10/09 02:41:04;;;;;;;10.50;5.37;;;;;;;12.11;71.86;97820.36;1690909;84;25286;-85
2022/10/09 02:43:30;;;;;;;8.45;4.80;;;;;;;12.11;71.75;97822.23;1690950;84;28277;-86
2022/10/09 02:45:57;;;;;;;9.30;4.92;;;;;;;12.09;71.79;97824.31;1690973;84;25683;-85
2022/10/09 02:48:23;;;;;;;10.05;5.20;;;;;;;12.05;71.76;97836.10;1718705;81;25860;-83
2022/10/09 02:50:50;;;;;;;11.35;5.55;;;;;;;12.01;71.69;97834.02;1717711;82;26511;-87
2022/10/09 02:53:16;;;;;;;11.25;4.75;;;;;;;11.95;71.60;97836.22;1687494;83;25650;-86
2022/10/09 02:55:43;;;;;;;10.00;5.03;;;;;;;11.87;71.67;97835.38;1690686;83;27374;-85
2022/10/09 02:58:09;;;;;;;11.10;5.05;;;;;;;11.84;71.67;97843.06;1690087;83;25891;-86
2022/10/09 03:00:38;;;;;;;11.48;5.17;;;;;;;11.78;71.75;97842.05;1689615;83;25744;-85
2022/10/09 03:03:04;;;;;;;13.22;5.08;;;;;;;11.77;71.85;97851.20;1701715;84;26329;-85
2022/10/09 03:05:31;;;;;;;10.63;5.00;;;;;;;11.81;71.88;97856.52;1694473;83;25815;-86
2022/10/09 03:07:57;;;;;;;10.63;4.75;;;;;;;11.84;71.82;97852.53;1668973;85;27426;-86
2022/10/09 03:10:24;;;;;;;8.53;5.00;;;;;;;11.86;71.84;97849.94;1665646;84;25810;-83
2022/10/09 03:12:50;;;;;;;9.73;4.62;;;;;;;11.87;71.80;97851.61;1702259;82;26333;-85
2022/10/09 03:15:17;;;;;;;9.43;4.25;;;;;;;11.84;71.59;97856.59;1670994;85;26630;-86
2022/10/09 03:17:44;;;;;;;7.40;4.10;;;;;;;11.80;71.68;97849.44;1671179;85;25875;-85
2022/10/09 03:20:10;;;;;;;9.55;4.53;;;;;;;11.80;71.71;97852.14;1666765;85;28179;-85
2022/10/09 03:22:37;;;;;;;9.58;4.37;;;;;;;11.80;71.71;97853.49;1666665;84;25250;-85
2022/10/09 03:25:04;;;;;;;10.08;4.00;;;;;;;11.79;71.76;97857.23;1677807;84;25989;-85
2022/10/09 03:27:31;;;;;;;11.93;4.78;;;;;;;11.80;71.77;97867.02;1677216;84;25798;-86
2022/10/09 03:29:58;;;;;;;12.95;4.83;;;;;;;11.77;71.65;97863.37;1668426;85;25992;-85
2022/10/09 03:32:25;;;;;;;11.45;3.95;;;;;;;11.78;71.70;97869.09;1676287;85;27353;-86
2022/10/09 03:34:52;;;;;;;9.63;4.03;;;;;;;11.76;71.67;97868.46;1703036;82;25881;-85
2022/10/09 03:37:18;;;;;;;8.35;3.87;;;;;;;11.75;71.66;97874.91;1705856;82;25728;-85
2022/10/09 03:39:45;;;;;;;7.83;3.60;;;;;;;11.78;71.73;97879.08;1696787;82;25766;-86
2022/10/09 03:42:11;;;;;;;7.92;4.87;;;;;;;11.77;71.72;97878.24;1710067;82;25878;-86
2022/10/09 03:44:38;;;;;;;12.95;4.85;;;;;;;11.73;71.67;97882.36;1706094;83;27436;-85
2022/10/09 03:47:04;;;;;;;12.98;4.33;;;;;;;11.67;71.69;97884.55;1719671;82;25826;-86
2022/10/09 03:49:31;;;;;;;8.30;3.77;;;;;;;11.63;71.84;97879.75;1693631;83;25396;-85
2022/10/09 03:51:58;;;;;;;7.08;3.72;;;;;;;11.62;71.88;97887.55;1670036;84;25717;-85
2022/10/09 03:54:25;;;;;;;11.43;4.28;;;;;;;11.63;71.88;97884.64;1665013;85;25747;-85
2022/10/09 03:56:52;;;;;;;11.65;4.25;;;;;;;11.65;71.89;97882.57;1662626;84;28271;-86
2022/10/09 03:59:18;;;;;;;8.73;4.47;;;;;;;11.68;71.89;97887.58;1664048;84;25772;-86
2022/10/09 04:01:45;;;;;;;8.10;4.12;;;;;;;11.68;71.84;97895.69;1689991;83;25807;-85
2022/10/09 04:04:11;;;;;;;8.30;4.15;;;;;;;11.63;71.84;97892.75;1694270;82;26439;-86
2022/10/09 04:06:38;;;;;;;12.03;5.15;;;;;;;11.62;71.88;97897.02;1678669;83;26368;-86
2022/10/09 04:09:05;;;;;;;7.72;4.03;;;;;;;11.59;71.92;97900.98;1689546;83;27586;-85
2022/10/09 04:11:31;;;;;;;10.10;4.03;;;;;;;11.57;72.04;97899.00;1688782;83;25270;-85
2022/10/09 04:13:58;;;;;;;8.48;4.33;;;;;;;11.58;72.20;97904.73;1722855;82;25794;-85
2022/10/09 04:16:25;;;;;;;11.95;4.65;;;;;;;11.54;72.18;97906.16;1693256;83;25850;-85
2022/10/09 04:18:51;;;;;;;10.25;4.42;;;;;;;11.52;72.21;97901.47;1692508;83;25751;-85
2022/10/09 04:21:18;;;;;;;6.10;3.55;;;;;;;11.50;72.30;97904.37;1691323;83;28111;-85
2022/10/09 04:23:45;;;;;;;9.60;4.08;;;;;;;11.51;72.30;97903.86;1722057;82;25789;-85
2022/10/09 04:26:12;;;;;;;12.65;4.42;;;;;;;11.54;72.22;97902.11;1724462;81;25762;-85
2022/10/09 04:28:39;;;;;;;10.48;4.47;;;;;;;11.51;72.19;97910.63;1721872;82;25791;-83
2022/10/09 04:31:06;;;;;;;7.80;3.95;;;;;;;11.50;72.00;97908.95;1722823;82;25675;-84
2022/10/09 04:33:32;;;;;;;5.78;3.42;;;;;;;11.47;71.82;97912.09;1720711;82;27430;-83
2022/10/09 04:35:59;;;;;;;7.80;3.40;;;;;;;11.40;71.70;97917.47;1723944;82;25709;-85
2022/10/09 04:38:26;;;;;;;5.62;3.90;;;;;;;11.39;71.70;97917.66;1722620;82;25675;-83
2022/10/09 04:41:03;;;;;;;10.15;3.67;;;;;;;11.37;71.63;97917.86;1721494;82;25706;-83
2022/10/09 04:43:30;;;;;;;8.58;3.87;;;;;;;11.38;71.52;97917.34;1718803;81;25835;-85
2022/10/09 04:45:57;;;;;;;5.03;3.10;;;;;;;11.34;71.44;97923.70;1724563;82;27401;-84
2022/10/09 04:48:24;;;;;;;7.80;3.45;;;;;;;11.25;71.46;97925.41;1722681;82;25970;-83
2022/10/09 04:50:51;;;;;;;9.60;3.70;;;;;;;11.15;71.55;97928.50;1722350;82;25761;-83
2022/10/09 04:53:18;;;;;;;6.97;3.77;;;;;;;11.06;71.68;97934.61;1722522;82;25765;-82
2022/10/09 04:55:45;;;;;;;10.80;4.03;;;;;;;11.02;71.86;97936.03;1667974;84;44647;-82
2022/10/09 04:58:12;;;;;;;10.93;4.40;;;;;;;11.05;71.87;97949.15;1723598;82;27249;-82
2022/10/09 05:00:42;;;;;;;9.08;3.92;;;;;;;11.06;71.94;97939.17;1719221;82;25687;-83
2022/10/09 05:03:09;;;;;;;9.55;4.00;;;;;;;11.09;71.98;97943.67;1722451;82;25816;-84
2022/10/09 05:05:36;;;;;;;11.00;4.50;;;;;;;11.10;71.99;97942.64;1714457;82;25812;-84
2022/10/09 05:08:03;;;;;;;6.42;4.12;;;;;;;11.10;72.03;97952.09;1703283;83;25744;-84
2022/10/09 05:10:31;;;;;;;11.78;4.17;;;;;;;11.08;72.07;97953.32;1704350;83;27471;-84
2022/10/09 05:12:58;;;;;;;12.00;4.80;;;;;;;11.08;72.00;97954.16;1691096;83;25744;-83
2022/10/09 05:15:25;;;;;;;6.95;4.03;;;;;;;11.05;71.93;97963.17;1695888;83;25973;-84
2022/10/09 05:17:52;;;;;;;7.00;4.17;;;;;;;10.98;71.89;97965.86;1699339;83;26322;-85
2022/10/09 05:20:19;;;;;;;6.95;4.50;;;;;;;10.98;71.87;97967.20;1694425;83;25744;-84
2022/10/09 05:22:46;;;;;;;7.92;4.00;;;;;;;10.91;71.94;97965.48;1704394;83;27368;-85
2022/10/09 05:25:14;;;;;;;10.28;4.95;;;;;;;10.87;72.11;97969.64;1687347;83;25763;-85
2022/10/09 05:27:40;;;;;;;10.08;5.65;;;;;;;10.78;72.19;97975.18;1691313;83;26022;-83
2022/10/09 05:30:08;;;;;;;8.38;5.20;;;;;;;10.71;72.25;97975.67;1687375;83;25747;-84
2022/10/09 05:32:35;;;;;;;11.00;5.35;;;;;;;10.71;72.44;97983.77;1687520;83;26423;-85
2022/10/09 05:35:03;;;;;;;9.25;5.05;;;;;;;10.67;72.39;97988.40;1701090;83;27375;-86
2022/10/09 05:37:30;;;;;;;12.00;5.62;;;;;;;10.67;72.47;97987.05;1689431;83;25791;-82
2022/10/09 05:39:57;;;;;;;9.50;5.58;;;;;;;10.64;72.48;97985.58;1687413;83;25278;-85
2022/10/09 05:42:23;;;;;;;11.73;5.05;;;;;;;10.68;72.44;97990.08;1692440;83;25675;-84
2022/10/09 05:44:50;;;;;;;9.55;5.12;;;;;;;10.70;72.54;97994.77;1696666;83;25736;-84
2022/10/09 05:47:18;;;;;;;9.23;4.70;;;;;;;10.72;72.53;98006.20;1718877;83;28288;-85
2022/10/09 05:49:45;;;;;;;11.38;5.30;;;;;;;10.78;72.48;98009.45;1719216;83;25749;-83
2022/10/09 05:52:11;;;;;;;11.93;5.03;;;;;;;10.83;72.50;98009.70;1702623;83;25801;-85
2022/10/09 05:54:38;;;;;;;9.73;4.80;;;;;;;10.88;72.41;98017.19;1699031;83;25838;-85
2022/10/09 05:57:04;;;;;;;12.68;4.92;;;;;;;10.90;72.42;98024.07;1717134;83;25265;-83
2022/10/09 05:59:31;;;;;;;8.15;4.60;;;;;;;10.94;72.36;98020.47;1708299;83;28177;-85
2022/10/09 06:01:58;;;;;;;9.65;4.83;;;;;;;10.97;72.26;98022.27;1705401;83;25688;-84
2022/10/09 06:04:25;;;;;;;8.53;5.05;;;;;;;10.99;72.30;98026.92;1711293;83;25240;-85
2022/10/09 06:06:52;;;;;;;9.15;4.53;;;;;;;11.03;72.31;98032.25;1700787;82;25975;-86
2022/10/09 06:09:23;;;;;;;11.63;5.10;;;;;;;11.08;72.31;98034.37;1699289;84;25803;-85
2022/10/09 06:11:51;;;;;;;6.25;4.25;;;;;;;11.11;72.31;98040.19;1674945;84;27377;-85
2022/10/09 06:14:20;;;;;;;10.85;4.87;;;;;;;11.12;72.26;98047.78;1677696;84;25736;-86
2022/10/09 06:16:46;;;;;;;11.00;4.83;;;;;;;11.06;72.28;98051.30;1706922;82;25689;-86
2022/10/09 06:19:15;;;;;;;12.07;5.40;;;;;;;11.02;72.43;98052.20;1695740;82;25900;-85
2022/10/09 06:21:43;;;;;;;10.30;4.87;;;;;;;11.04;72.52;98056.05;1677731;84;25785;-85
2022/10/09 06:24:24;;;;;;;8.00;4.25;;;;;;;11.06;72.53;98060.75;1707704;83;28376;-85
2022/10/09 06:26:51;;;;;;;6.35;4.50;;;;;;;11.06;72.40;98062.94;1707735;83;26346;-85
2022/10/09 06:29:18;;;;;;;7.03;4.62;;;;;;;11.08;72.42;98068.98;1676670;84;25729;-85
2022/10/09 06:31:44;;;;;;;11.80;4.75;;;;;;;11.10;72.41;98074.19;1676513;84;26429;-85
2022/10/09 06:34:11;;;;;;;14.95;5.00;;;;;;;11.11;72.39;98075.83;1681718;83;26057;-85
2022/10/09 06:36:38;;;;;;;8.48;4.95;;;;;;;11.12;72.41;98082.39;1677392;84;28204;-84
2022/10/09 06:39:07;;;;;;;8.53;3.72;;;;;;;11.13;72.42;98084.06;1676097;84;26003;-86
2022/10/09 06:41:35;;;;;;;6.95;4.33;;;;;;;11.12;72.09;98086.95;1658305;84;26388;-86
2022/10/09 06:44:06;;;;;;;9.18;4.20;;;;;;;11.00;71.88;98088.02;1657544;84;25849;-85
2022/10/09 06:46:37;;;;;;;9.85;4.03;;;;;;;10.96;71.81;98089.47;1671258;84;25851;-86
2022/10/09 06:49:04;;;;;;;10.35;3.65;;;;;;;10.95;71.78;98095.91;1677430;84;27379;-86
2022/10/09 06:51:33;;;;;;;11.45;3.77;;;;;;;10.91;71.79;98097.31;1667165;84;25797;-86
2022/10/09 06:54:03;;;;;;;7.55;2.87;;;;;;;10.89;71.78;98102.08;1676647;84;25847;-86
2022/10/09 06:56:31;;;;;;;6.72;3.60;;;;;;;10.92;71.58;98096.29;1664310;84;26355;-86
2022/10/09 06:59:05;;;;;;;8.38;4.10;;;;;;;10.92;71.32;98103.55;1649418;84;25995;-85
2022/10/09 07:01:33;;;;;;;7.45;3.25;;;;;;;10.89;71.40;98105.30;1667528;84;27369;-86
2022/10/09 07:04:05;;;;;;;10.55;3.98;;;;;;;10.91;71.26;98104.07;1652194;84;26366;-84
2022/10/09 07:06:36;;;;;;;5.67;3.12;;;;;;;10.88;71.01;98109.86;1683258;83;25557;-86
2022/10/09 07:09:06;;;;;;;6.72;3.40;;;;;;;10.86;70.84;98109.76;1699445;82;25977;-83
2022/10/09 07:11:47;;;;;;;6.05;2.98;;;;;;;10.83;70.72;98112.33;1700626;82;25772;-86
2022/10/09 07:14:14;;;;;;;5.92;3.20;;;;;;;10.79;70.54;98116.44;1701940;82;27400;-86
2022/10/09 07:16:45;;;;;;;5.92;2.58;;;;;;;10.76;70.48;98110.08;1700245;82;25794;-86
2022/10/09 07:19:14;;;;;;;8.03;3.52;;;;;;;10.78;70.68;98112.06;1699905;82;25777;-86
2022/10/09 07:21:43;;;;;;;9.28;3.10;;;;;;;10.85;70.68;98115.67;1702217;82;25687;-86
2022/10/09 07:24:11;;;;;;;7.28;3.37;;;;;;;10.88;70.25;98122.02;1701185;82;26093;-87
2022/10/09 07:26:42;;;;;;;5.90;2.90;;;;;;;10.85;70.21;98127.83;1701781;84;28014;-83
2022/10/09 07:29:11;;;;;;;6.95;2.90;;;;;;;10.98;70.22;98123.88;1700062;82;25821;-85
2022/10/09 07:31:38;;;;;;;8.30;3.30;;;;;;;11.17;70.03;98135.34;1700976;84;25719;-83
2022/10/09 07:34:05;;;;;;;9.25;3.30;;;;;;;11.28;69.73;98139.87;1701278;84;25748;-86
2022/10/09 07:36:32;;;;;;;6.03;2.70;;;;;;;11.32;69.72;98141.16;1701181;82;25787;-87
2022/10/09 07:38:59;;;;;;;6.67;3.37;;;;;;;11.34;69.56;98145.85;1701233;84;28129;-87
2022/10/09 07:41:28;;;;;;;3.85;2.60;;;;;;;11.34;69.44;98138.58;1700116;82;26441;-87
2022/10/09 07:43:55;;;;;;;4.75;2.75;;;;;;;11.43;69.08;98141.95;1700925;83;25824;-88
2022/10/09 07:46:24;;;;;;;6.15;2.62;;;;;;;11.42;68.82;98147.88;1701122;82;25855;-90
2022/10/09 07:48:52;;;;;;;10.28;3.85;;;;;;;11.37;68.74;98148.97;1698760;84;26547;-88
2022/10/09 07:51:23;;;;;;;9.05;4.40;;;;;;;11.35;68.91;98147.52;1700439;82;28176;-88
2022/10/09 07:53:51;;;;;;;6.42;3.70;;;;;;;11.33;69.06;98147.72;1730432;81;25793;-85
2022/10/09 07:56:28;;;;;;;8.35;3.10;;;;;;;11.39;69.25;98147.42;1730267;81;25732;-87
2022/10/09 07:58:57;;;;;;;5.65;3.25;;;;;;;11.43;69.02;98155.47;1680262;84;26505;-86
2022/10/09 08:01:29;;;;;;;7.22;3.30;;;;;;;11.39;68.80;98158.23;1687630;84;25756;-86
2022/10/09 08:03:56;;;;;;;6.78;2.85;;;;;;;11.34;68.84;98153.95;1720308;82;27471;-85
2022/10/09 08:06:23;;;;;;;7.87;3.58;;;;;;;11.37;68.89;98163.84;1691671;83;25712;-84
2022/10/09 08:08:53;;;;;;;5.70;2.98;;;;;;;11.42;68.77;98164.09;1700785;82;25906;-86
2022/10/09 08:11:21;;;;;;;6.03;2.90;;;;;;;11.47;68.48;98167.56;1697416;82;25725;-86
2022/10/09 08:13:49;;;;;;;8.23;3.22;;;;;;;11.49;68.52;98165.47;1699680;82;25795;-84
2022/10/09 08:16:18;;;;;;;5.95;2.95;;;;;;;11.50;68.58;98171.20;1699347;82;27542;-86
2022/10/09 08:18:45;;;;;;;9.63;3.58;;;;;;;11.54;68.52;98175.19;1700266;82;25750;-84
2022/10/09 08:21:17;;;;;;;6.85;3.22;;;;;;;11.55;68.39;98175.50;1732718;82;25942;-86
2022/10/09 08:23:45;;;;;;;4.83;3.25;;;;;;;11.54;67.94;98171.13;1699954;82;25702;-85
2022/10/09 08:26:18;;;;;;;8.05;3.20;;;;;;;11.50;68.21;98169.84;1700964;82;25796;-84
2022/10/09 08:28:52;;;;;;;6.80;2.80;;;;;;;11.51;68.14;98175.57;1701325;82;28376;-85
2022/10/09 08:31:20;;;;;;;6.30;2.87;;;;;;;11.59;67.89;98173.25;1698930;82;25838;-86
2022/10/09 08:33:47;;;;;;;8.80;2.55;;;;;;;11.82;68.15;98177.88;1701642;82;25690;-86
2022/10/09 08:36:14;;;;;;;4.95;2.05;;;;;;;12.23;67.95;98179.18;1677789;83;26644;-86
2022/10/09 08:38:42;;;;;;;4.92;2.67;;;;;;;12.63;67.08;98172.84;1701088;82;25790;-86
2022/10/09 08:41:46;;;;;;;5.42;2.42;;;;;;;12.95;66.40;98164.94;1701311;82;27538;-85
2022/10/09 08:44:48;;;;;;;5.62;2.35;;;;;;;13.15;66.15;98158.22;1701401;82;25296;-84
2022/10/09 08:47:35;;;;;;;5.58;2.45;;;;;;;13.36;65.75;98172.06;1700688;82;25727;-85
2022/10/09 08:50:18;;;;;;;6.12;2.35;;;;;;;13.72;64.90;98178.36;1699724;83;26412;-83
2022/10/09 08:53:15;;;;;;;6.97;2.62;;;;;;;14.02;64.89;98178.14;1728875;81;25755;-84
2022/10/09 08:56:00;;;;;;;7.90;2.40;;;;;;;14.08;64.35;98188.69;1699473;82;27428;-85
2022/10/09 08:58:35;;;;;;;4.60;2.30;;;;;;;14.09;64.17;98182.20;1690720;82;25795;-85
2022/10/09 09:01:12;;;;;;;6.67;2.75;;;;;;;14.20;63.63;98183.73;1700048;82;25694;-83
2022/10/09 09:04:24;;;;;;;4.95;2.30;;;;;;;14.06;63.13;98184.30;1703648;82;25847;-83
2022/10/09 09:07:17;;;;;;;7.40;2.27;;;;;;;14.15;63.09;98192.20;1728442;82;25737;-85
2022/10/09 09:09:54;;;;;;;5.60;2.40;;;;;;;14.33;62.54;98197.77;1680845;83;28319;-83
2022/10/09 09:12:35;;;;;;;5.10;2.15;;;;;;;14.55;62.61;98188.28;1717807;81;25715;-83
2022/10/09 09:15:24;;;;;;;5.05;1.65;;;;;;;14.83;62.21;98187.08;1690605;83;25805;-83
2022/10/09 09:18:11;;;;;;;5.70;2.17;;;;;;;15.09;61.73;98184.17;1683736;83;25692;-83
2022/10/09 09:20:58;;;;;;;5.28;2.30;;;;;;;15.39;60.88;98179.71;1685989;83;25653;-85
2022/10/09 09:23:33;;;;;;;4.00;2.00;;;;;;;15.68;60.17;98178.22;1681501;84;28251;-84
2022/10/09 09:26:01;;;;;;;3.92;1.82;;;;;;;15.80;59.55;98179.66;1687770;83;26323;-85
2022/10/09 09:28:34;;;;;;;4.87;2.02;;;;;;;15.84;59.05;98174.05;1720779;82;25786;-86
2022/10/09 09:31:22;;;;;;;6.78;1.90;;;;;;;15.85;57.52;98178.44;1717695;82;25800;-86
2022/10/09 09:34:15;;;;;;;8.35;2.10;;;;;;;15.73;57.67;98167.47;1705578;82;25816;-86
2022/10/09 09:36:57;;;;;;;4.78;1.98;;;;;;;15.83;56.91;98160.13;1684920;84;27334;-87
2022/10/09 09:39:26;;;;;;;;;;;;;;;15.99;57.25;98163.63;1691969;83;25782;-87
2022/10/09 09:42:01;;;;;;;5.33;1.95;;;;;;;16.30;56.54;98167.24;1728668;81;25859;-84
2022/10/09 09:44:31;;;;;;;5.72;2.00;;;;;;;16.49;56.93;98168.33;1719097;82;25791;-86
2022/10/09 09:46:58;;;;;;;4.00;1.45;;;;;;;16.78;56.65;98153.60;1718344;82;25743;-86
2022/10/09 09:49:27;;;;;;;2.52;2.02;;;;;;;16.90;55.42;98155.27;1717860;82;27533;-85
2022/10/09 09:51:57;;;;;;;3.67;2.33;;;;;;;16.87;55.90;98154.39;1687840;83;25882;-85
2022/10/09 09:54:27;;;;;;;5.67;1.87;;;;;;;16.93;55.87;98162.98;1654088;84;25668;-85
2022/10/09 09:56:58;;;;;;;3.70;2.12;;;;;;;17.16;55.82;98162.73;1663817;84;25939;-86
2022/10/09 09:59:38;;;;;;;6.83;2.35;;;;;;;17.38;55.05;98158.92;1687564;83;26386;-85
2022/10/09 10:02:19;;;;;;;6.42;2.47;;;;;;;17.47;54.88;98163.78;1690721;83;27500;-86
2022/10/09 10:04:59;;;;;;;4.80;2.58;;;;;;;17.51;54.64;98165.52;1682701;84;25557;-86
2022/10/09 10:07:29;;;;;;;4.12;1.80;;;;;;;17.44;54.11;98164.25;1726196;81;25978;-87
2022/10/09 10:10:15;;;;;;;5.45;1.60;;;;;;;17.31;53.57;98167.73;1716942;82;26365;-87
2022/10/09 10:12:53;;;;;;;4.40;2.08;;;;;;;17.31;53.49;98156.29;1688573;84;25962;-89
2022/10/09 10:15:27;;;;;;;4.50;1.90;;;;;;;17.34;53.28;98154.46;1722498;81;27353;-89
2022/10/09 10:18:03;;;;;;;3.92;1.82;;;;;;;17.44;53.05;98149.23;1720745;82;25771;-87
2022/10/09 10:20:34;;;;;;;6.05;2.02;;;;;;;17.46;52.70;98155.30;1684758;83;25837;-89
2022/10/09 10:23:01;;;;;;;4.23;1.97;;;;;;;17.53;52.90;98156.53;1701026;83;25843;-86
2022/10/09 10:25:32;;;;;;;5.55;1.80;;;;;;;17.55;52.55;98160.69;1736982;81;25744;-87
2022/10/09 10:28:07;;;;;;;6.30;1.65;;;;;;;17.45;52.12;98158.26;1691647;83;28285;-88
2022/10/09 10:30:35;;;;;;;2.45;1.72;;;;;;;17.22;51.57;98156.34;1717890;81;25834;-88
2022/10/09 10:33:07;;;;;;;6.67;1.80;;;;;;;17.01;51.42;98151.45;1690191;83;25770;-89
2022/10/09 10:35:37;;;;;;;6.35;2.27;;;;;;;16.90;51.03;98153.91;1688928;83;25681;-90
2022/10/09 10:38:38;;;;;;;5.83;2.02;;;;;;;16.78;51.30;98151.70;1690730;83;25833;-88
2022/10/09 10:41:16;;;;;;;7.67;2.10;;;;;;;16.84;51.74;98145.30;1691045;84;27362;-88
2022/10/09 10:44:00;;;;;;;4.20;1.85;;;;;;;17.07;51.96;98140.96;1725427;81;25283;-86
2022/10/09 10:46:48;;;;;;;5.95;2.08;;;;;;;17.31;51.95;98142.64;1678168;83;25321;-88
2022/10/09 10:49:22;;;;;;;5.55;2.20;;;;;;;17.43;51.27;98146.20;1718002;81;26741;-88
2022/10/09 10:52:16;;;;;;;5.25;2.25;;;;;;;17.29;50.93;98140.68;1688031;84;25744;-88
2022/10/09 10:55:09;;;;;;;2.85;1.70;;;;;;;17.13;50.62;98146.32;1687730;83;28409;-88
2022/10/09 10:57:39;;;;;;;;;;;;;;;16.91;49.93;98146.02;1691950;83;25675;-87
2022/10/09 11:00:09;;;;;;;4.70;1.90;;;;;;;16.63;49.71;98147.73;1717222;81;26374;-89
2022/10/09 11:02:59;;;;;;;5.15;1.70;;;;;;;16.55;50.65;98149.67;1702506;82;25778;-89
2022/10/09 11:05:49;;;;;;;2.05;1.52;;;;;;;16.72;50.67;98140.36;1695463;84;25697;-88
2022/10/09 11:08:27;;;;;;;2.95;1.35;;;;;;;16.87;50.55;98148.11;1729157;81;27465;-88
2022/10/09 11:11:02;;;;;;;2.83;1.72;;;;;;;17.08;50.19;98142.63;1719682;82;25833;-85
2022/10/09 11:14:03;;;;;;;7.10;1.60;;;;;;;17.26;49.92;98139.28;1688869;83;25729;-86
2022/10/09 11:16:58;;;;;;;3.15;1.40;;;;;;;17.44;49.59;98129.30;1689254;84;25488;-87
2022/10/09 11:19:54;;;;;;;4.00;1.92;;;;;;;17.62;49.70;98131.39;1688655;83;25648;-86
2022/10/09 11:22:49;;;;;;;4.90;1.45;;;;;;;17.64;48.57;98136.08;1682140;83;27350;-82
2022/10/09 11:25:54;;;;;;;6.17;1.80;;;;;;;17.78;49.32;98134.47;1721065;82;25798;-86
2022/10/09 11:28:35;;;;;;;2.98;1.30;;;;;;;17.98;48.63;98130.83;1717835;81;25755;-88
2022/10/09 11:31:19;;;;;;;4.10;1.50;;;;;;;18.04;47.32;98130.38;1706187;82;25750;-88
2022/10/09 11:33:51;;;;;;;3.55;1.80;;;;;;;17.91;47.81;98124.11;1688668;83;26216;-88
2022/10/09 11:36:26;;;;;;;3.30;1.82;;;;;;;17.96;47.99;98118.77;1702264;82;28223;-84
2022/10/09 11:39:04;;;;;;;4.20;1.80;;;;;;;18.27;48.24;98124.30;1708178;82;25699;-84
2022/10/09 11:45:07;;;;;;;5.28;2.12;;;;;;;18.65;46.32;98120.14;1669529;85;25926;-73
2022/10/09 11:47:57;;;;;;;2.98;1.42;;;;;;;18.46;46.66;98126.33;1649204;86;26512;-76
2022/10/09 11:50:45;;;;;;;2.77;1.60;;;;;;;18.28;46.31;98119.14;1642590;86;27304;-76
2022/10/09 11:53:21;;;;;;;3.65;2.00;;;;;;;18.06;46.15;98120.88;1648880;86;25780;-76
2022/10/09 11:55:48;;;;;;;4.53;1.92;;;;;;;17.73;46.39;98120.19;1649045;86;25904;-75
2022/10/09 11:58:24;;;;;;;4.78;1.70;;;;;;;17.54;46.69;98123.54;1648655;87;25753;-76